createdAt,value
2016-07-05T00:00:05.651Z,47.5
2016-07-05T00:01:05.671Z,47.7
2016-07-05T00:02:05.663Z,47.5
2016-07-05T00:03:06.286Z,47.89
2016-07-05T00:04:06.289Z,47.99
2016-07-05T00:05:05.680Z,48.08
2016-07-05T00:06:06.304Z,47.99
2016-07-05T00:07:05.691Z,47.99
2016-07-05T00:08:05.700Z,47.6
2016-07-05T00:09:06.317Z,47.89
2016-07-05T00:10:06.321Z,47.89
2016-07-05T00:11:05.717Z,47.99
2016-07-05T00:12:06.331Z,47.99
2016-07-05T00:13:06.334Z,47.6
2016-07-05T00:14:06.331Z,47.99
2016-07-05T00:15:05.730Z,47.89
2016-07-05T00:16:06.347Z,47.5
2016-07-05T00:17:05.737Z,47.89
2016-07-05T00:18:06.361Z,47.41
2016-07-05T00:19:05.756Z,47.5
2016-07-05T00:20:05.768Z,47.89
2016-07-05T00:21:05.769Z,47.89
2016-07-05T00:22:06.374Z,47.81
2016-07-05T00:23:05.775Z,47.8
2016-07-05T00:24:06.398Z,47.91
2016-07-05T00:25:06.403Z,47.7
2016-07-05T00:26:05.791Z,47.12
2016-07-05T00:27:05.786Z,47.6
2016-07-05T00:28:06.409Z,47.6
2016-07-05T00:29:06.408Z,47.41
2016-07-05T00:30:06.423Z,47.41
2016-07-05T00:31:05.821Z,47.41
2016-07-05T00:32:05.817Z,47.22
2016-07-05T00:33:06.447Z,47.6
2016-07-05T00:34:06.449Z,47.12
2016-07-05T00:35:05.852Z,47.41
2016-07-05T00:36:05.845Z,47.41
2016-07-05T00:37:05.851Z,47.8
2016-07-05T00:38:05.907Z,47.31
2016-07-05T00:39:06.476Z,47.7
2016-07-05T00:40:06.481Z,47.41
2016-07-05T00:41:06.485Z,47.41
2016-07-05T00:42:05.879Z,47.8
2016-07-05T00:43:05.882Z,47.5
2016-07-05T00:44:06.502Z,47.22
2016-07-05T00:45:06.508Z,47.81
2016-07-05T00:46:05.897Z,47.5
2016-07-05T00:47:06.517Z,47.6
2016-07-05T00:48:05.897Z,47.41
2016-07-05T00:49:06.513Z,47.6
2016-07-05T00:50:06.516Z,47.63
2016-07-05T00:51:06.538Z,47.6
2016-07-05T00:52:06.544Z,47.31
2016-07-05T00:53:06.545Z,47.6
2016-07-05T00:54:05.934Z,47.6
2016-07-05T00:55:05.930Z,47.5
2016-07-05T00:56:06.564Z,47.6
2016-07-05T00:57:06.567Z,47.31
2016-07-05T00:58:05.960Z,47.31
2016-07-05T00:59:06.576Z,47.31
2016-07-05T01:00:05.965Z,47.8
2016-07-05T01:01:05.972Z,47.5
2016-07-05T01:02:05.978Z,47.5
2016-07-05T01:03:06.594Z,47.22
2016-07-05T01:04:06.592Z,47.7
2016-07-05T01:05:05.991Z,47.41
2016-07-05T01:06:05.999Z,47.41
2016-07-05T01:07:06.610Z,47.53
2016-07-05T01:08:06.011Z,47.5
2016-07-05T01:09:06.014Z,47.41
2016-07-05T01:10:06.018Z,47.8
2016-07-05T01:11:06.025Z,47.5
2016-07-05T01:12:06.039Z,47.53
2016-07-05T01:13:06.650Z,47.6
2016-07-05T01:14:06.645Z,47.5
2016-07-05T01:15:06.054Z,47.8
2016-07-05T01:16:06.661Z,47.6
2016-07-05T01:17:06.059Z,47.6
2016-07-05T01:18:06.057Z,47.8
2016-07-05T01:19:06.063Z,47.8
2016-07-05T01:20:06.074Z,47.6
2016-07-05T01:21:06.077Z,47.7
2016-07-05T01:22:06.698Z,47.63
2016-07-05T01:23:06.087Z,47.8
2016-07-05T01:24:06.704Z,48.18
2016-07-05T01:25:06.712Z,48.28
2016-07-05T01:26:06.100Z,48.28
2016-07-05T01:27:06.718Z,48.28
2016-07-05T01:28:06.723Z,47.6
2016-07-05T01:29:06.117Z,47.41
2016-07-05T01:30:06.124Z,47.41
2016-07-05T01:31:06.743Z,47.6
2016-07-05T01:32:06.129Z,47.63
2016-07-05T01:33:06.740Z,47.63
2016-07-05T01:34:06.136Z,47.89
2016-07-05T01:35:06.755Z,47.89
2016-07-05T01:36:06.757Z,47.89
2016-07-05T01:37:06.773Z,47.89
2016-07-05T01:38:06.777Z,47.89
2016-07-05T01:39:06.838Z,47.8
2016-07-05T01:40:06.174Z,48.28
2016-07-05T01:41:06.788Z,48.3
2016-07-05T01:42:06.802Z,48.28
2016-07-05T01:43:06.808Z,48.11
2016-07-05T01:44:06.815Z,48.08
2016-07-05T01:45:06.814Z,48.01
2016-07-05T01:46:06.822Z,48.08
2016-07-05T01:47:06.217Z,47.99
2016-07-05T01:48:06.828Z,48.08
2016-07-05T01:49:06.223Z,48.08
2016-07-05T01:50:06.841Z,48.08
2016-07-05T01:51:06.233Z,48.18
2016-07-05T01:52:06.244Z,48.08
2016-07-05T01:53:06.856Z,48.08
2016-07-05T01:54:06.301Z,48.08
2016-07-05T01:55:06.868Z,48.28
2016-07-05T01:56:06.874Z,48.18
2016-07-05T01:57:06.876Z,48.11
2016-07-05T01:58:06.884Z,47.7
2016-07-05T01:59:06.276Z,48.08
2016-07-05T02:00:06.930Z,48.08
2016-07-05T02:01:07.010Z,48.28
2016-07-05T02:02:07.033Z,48.08
2016-07-05T02:03:06.973Z,48.08
2016-07-05T02:04:06.297Z,48.01
2016-07-05T02:05:06.434Z,47.99
2016-07-05T02:06:06.373Z,48.08
2016-07-05T02:07:06.359Z,48.08
2016-07-05T02:08:06.933Z,48.08
2016-07-05T02:09:06.329Z,47.89
2016-07-05T02:10:06.333Z,47.8
2016-07-05T02:11:06.334Z,48.08
2016-07-05T02:12:06.954Z,48.08
2016-07-05T02:13:06.347Z,47.91
2016-07-05T02:14:06.967Z,48.18
2016-07-05T02:15:06.972Z,47.89
2016-07-05T02:16:06.366Z,47.89
2016-07-05T02:17:06.979Z,47.7
2016-07-05T02:18:06.375Z,47.7
2016-07-05T02:19:06.998Z,47.7
2016-07-05T02:20:07.005Z,47.89
2016-07-05T02:21:07.009Z,47.89
2016-07-05T02:22:07.008Z,47.99
2016-07-05T02:23:06.406Z,47.8
2016-07-05T02:24:07.024Z,47.8
2016-07-05T02:25:06.411Z,47.6
2016-07-05T02:26:06.416Z,47.7
2016-07-05T02:27:07.041Z,48.28
2016-07-05T02:28:07.041Z,47.8
2016-07-05T02:29:07.047Z,47.89
2016-07-05T02:30:06.434Z,47.7
2016-07-05T02:31:07.053Z,47.7
2016-07-05T02:32:06.439Z,48.18
2016-07-05T02:33:07.061Z,47.7
2016-07-05T02:34:06.452Z,48.28
2016-07-05T02:35:07.071Z,48.37
2016-07-05T02:36:07.078Z,48.08
2016-07-05T02:37:07.094Z,48.37
2016-07-05T02:38:07.086Z,48.37
2016-07-05T02:39:07.147Z,48.37
2016-07-05T02:40:07.149Z,48.37
2016-07-05T02:41:06.489Z,48.08
2016-07-05T02:42:07.114Z,47.89
2016-07-05T02:43:07.120Z,47.99
2016-07-05T02:44:06.511Z,48.37
2016-07-05T02:45:07.126Z,48.37
2016-07-05T02:46:07.138Z,47.89
2016-07-05T02:47:07.142Z,48.47
2016-07-05T02:48:07.147Z,48.08
2016-07-05T02:49:07.150Z,48.37
2016-07-05T02:50:06.534Z,48.18
2016-07-05T02:51:06.549Z,48.28
2016-07-05T02:52:06.555Z,47.8
2016-07-05T02:53:06.560Z,48.21
2016-07-05T02:54:07.175Z,48.18
2016-07-05T02:55:07.183Z,47.7
2016-07-05T02:56:07.188Z,48.3
2016-07-05T02:57:06.568Z,48.28
2016-07-05T02:58:07.191Z,48.08
2016-07-05T02:59:07.192Z,47.99
2016-07-05T03:00:06.584Z,48.47
2016-07-05T03:01:06.591Z,48.28
2016-07-05T03:02:07.214Z,47.8
2016-07-05T03:03:07.217Z,48.28
2016-07-05T03:04:06.614Z,48.37
2016-07-05T03:05:06.620Z,48.37
2016-07-05T03:06:07.239Z,48.28
2016-07-05T03:07:07.241Z,47.89
2016-07-05T03:08:06.637Z,48.37
2016-07-05T03:09:07.252Z,48.28
2016-07-05T03:10:07.257Z,47.89
2016-07-05T03:11:06.643Z,48.37
2016-07-05T03:12:06.656Z,48.18
2016-07-05T03:13:07.278Z,47.99
2016-07-05T03:14:06.667Z,47.8
2016-07-05T03:15:06.673Z,47.8
2016-07-05T03:16:07.281Z,48.37
2016-07-05T03:17:07.296Z,48.47
2016-07-05T03:18:07.301Z,48.3
2016-07-05T03:19:07.297Z,48.37
2016-07-05T03:20:07.309Z,48.37
2016-07-05T03:21:07.308Z,48.28
2016-07-05T03:22:06.706Z,48.18
2016-07-05T03:23:07.324Z,47.89
2016-07-05T03:24:07.327Z,47.8
2016-07-05T03:25:06.720Z,48.47
2016-07-05T03:26:07.342Z,47.8
2016-07-05T03:27:07.344Z,47.89
2016-07-05T03:28:07.348Z,48.08
2016-07-05T03:29:06.733Z,47.8
2016-07-05T03:30:06.745Z,47.99
2016-07-05T03:31:06.755Z,48.08
2016-07-05T03:32:07.370Z,47.99
2016-07-05T03:33:06.779Z,48.18
2016-07-05T03:34:06.766Z,47.99
2016-07-05T03:35:07.386Z,48.28
2016-07-05T03:36:06.776Z,48.08
2016-07-05T03:37:07.385Z,47.89
2016-07-05T03:38:07.392Z,48.08
2016-07-05T03:39:07.449Z,47.99
2016-07-05T03:40:07.452Z,47.89
2016-07-05T03:41:06.794Z,48.18
2016-07-05T03:42:06.804Z,48.18
2016-07-05T03:43:07.419Z,48.08
2016-07-05T03:44:07.424Z,48.08
2016-07-05T03:45:07.430Z,48.08
2016-07-05T03:46:07.438Z,48.37
2016-07-05T03:47:07.439Z,48.28
2016-07-05T03:48:07.446Z,48.08
2016-07-05T03:49:07.449Z,47.99
2016-07-05T03:50:06.847Z,48.18
2016-07-05T03:51:07.465Z,48.08
2016-07-05T03:52:07.460Z,47.89
2016-07-05T03:53:06.854Z,48.08
2016-07-05T03:54:07.484Z,47.8
2016-07-05T03:55:07.489Z,48.08
2016-07-05T03:56:06.880Z,48.37
2016-07-05T03:57:07.498Z,48.08
2016-07-05T03:58:07.494Z,48.18
2016-07-05T03:59:07.499Z,47.99
2016-07-05T04:00:06.902Z,48.18
2016-07-05T04:01:07.521Z,48.08
2016-07-05T04:02:07.525Z,47.99
2016-07-05T04:03:07.530Z,47.99
2016-07-05T04:04:07.535Z,48.18
2016-07-05T04:05:07.536Z,47.99
2016-07-05T04:06:06.937Z,48.18
2016-07-05T04:07:07.548Z,48.08
2016-07-05T04:08:07.556Z,48.18
2016-07-05T04:09:07.570Z,48.28
2016-07-05T04:10:07.566Z,48.08
2016-07-05T04:11:06.952Z,48.47
2016-07-05T04:12:06.959Z,47.99
2016-07-05T04:13:06.969Z,48.47
2016-07-05T04:14:07.589Z,48.21
2016-07-05T04:15:07.593Z,47.99
2016-07-05T04:16:06.987Z,48.08
2016-07-05T04:17:07.606Z,48.08
2016-07-05T04:18:07.610Z,48.08
2016-07-05T04:19:06.996Z,48.08
2016-07-05T04:20:07.000Z,47.89
2016-07-05T04:21:07.028Z,47.99
2016-07-05T04:22:07.019Z,47.99
2016-07-05T04:23:07.012Z,48.08
2016-07-05T04:24:07.017Z,48.08
2016-07-05T04:25:07.644Z,48.37
2016-07-05T04:26:07.651Z,48.39
2016-07-05T04:27:07.046Z,48.08
2016-07-05T04:28:07.041Z,48.08
2016-07-05T04:29:07.054Z,47.99
2016-07-05T04:30:07.667Z,48.08
2016-07-05T04:31:07.058Z,48.18
2016-07-05T04:32:07.071Z,48.08
2016-07-05T04:33:07.076Z,48.28
2016-07-05T04:34:07.085Z,48.08
2016-07-05T04:35:07.694Z,48.08
2016-07-05T04:36:07.094Z,48.08
2016-07-05T04:37:07.701Z,47.99
2016-07-05T04:38:07.715Z,47.89
2016-07-05T04:39:07.725Z,48.37
2016-07-05T04:40:07.163Z,48.28
2016-07-05T04:41:07.166Z,48.08
2016-07-05T04:42:07.740Z,48.39
2016-07-05T04:43:07.739Z,48.37
2016-07-05T04:44:07.750Z,48.3
2016-07-05T04:45:07.755Z,47.81
2016-07-05T04:46:07.753Z,48.49
2016-07-05T04:47:07.766Z,48.01
2016-07-05T04:48:07.769Z,48.21
2016-07-05T04:49:07.154Z,47.91
2016-07-05T04:50:07.158Z,48.3
2016-07-05T04:51:07.773Z,48.11
2016-07-05T04:52:07.172Z,48.01
2016-07-05T04:53:07.791Z,48.39
2016-07-05T04:54:07.187Z,47.91
2016-07-05T04:55:07.795Z,47.81
2016-07-05T04:56:07.806Z,48.11
2016-07-05T04:57:07.207Z,48.11
2016-07-05T04:58:07.821Z,48.21
2016-07-05T04:59:07.217Z,48.21
2016-07-05T05:00:07.835Z,47.81
2016-07-05T05:01:07.841Z,47.43
2016-07-05T05:02:07.849Z,47.63
2016-07-05T05:03:07.852Z,47.81
2016-07-05T05:04:07.243Z,47.91
2016-07-05T05:05:07.862Z,48.3
2016-07-05T05:06:07.253Z,47.91
2016-07-05T05:07:07.867Z,48.01
2016-07-05T05:08:07.256Z,47.43
2016-07-05T05:09:07.884Z,47.72
2016-07-05T05:10:07.888Z,48.11
2016-07-05T05:11:07.283Z,47.05
2016-07-05T05:12:07.899Z,47.26
2016-07-05T05:13:07.897Z,47.05
2016-07-05T05:14:07.294Z,47.16
2016-07-05T05:15:07.913Z,46.78
2016-07-05T05:16:07.925Z,46.88
2016-07-05T05:17:07.319Z,46.78
2016-07-05T05:18:07.939Z,47.16
2016-07-05T05:19:07.329Z,46.97
2016-07-05T05:20:07.951Z,47.16
2016-07-05T05:21:07.949Z,47.26
2016-07-05T05:22:07.965Z,47.45
2016-07-05T05:23:07.969Z,47.55
2016-07-05T05:24:07.366Z,47.55
2016-07-05T05:25:07.981Z,47.14
2016-07-05T05:26:07.987Z,47.05
2016-07-05T05:27:07.996Z,47.14
2016-07-05T05:28:08.005Z,47.26
2016-07-05T05:29:07.392Z,47.24
2016-07-05T05:30:08.011Z,47.45
2016-07-05T05:31:08.018Z,47.43
2016-07-05T05:32:07.412Z,47.45
2016-07-05T05:33:08.021Z,47.43
2016-07-05T05:34:08.044Z,47.53
2016-07-05T05:35:07.417Z,47.72
2016-07-05T05:36:08.049Z,47.72
2016-07-05T05:37:08.058Z,47.24
2016-07-05T05:38:08.063Z,47.43
2016-07-05T05:39:07.448Z,47.53
2016-07-05T05:40:08.073Z,47.26
2016-07-05T05:41:08.080Z,47.24
2016-07-05T05:42:08.084Z,46.75
2016-07-05T05:43:08.088Z,47.26
2016-07-05T05:44:08.100Z,46.97
2016-07-05T05:45:08.099Z,46.49
2016-07-05T05:46:07.499Z,46.78
2016-07-05T05:47:07.492Z,46.88
2016-07-05T05:48:08.112Z,47.16
2016-07-05T05:49:08.129Z,46.88
2016-07-05T05:50:08.137Z,47.07
2016-07-05T05:51:08.141Z,46.97
2016-07-05T05:52:08.150Z,46.97
2016-07-05T05:53:08.152Z,46.78
2016-07-05T05:54:07.541Z,47.16
2016-07-05T05:55:08.166Z,46.3
2016-07-05T05:56:07.562Z,46.22
2016-07-05T05:57:07.573Z,46.61
2016-07-05T05:58:08.192Z,46.22
2016-07-05T05:59:07.571Z,46.22
2016-07-05T06:00:07.591Z,46.42
2016-07-05T06:01:08.202Z,46.51
2016-07-05T06:02:08.221Z,46.42
2016-07-05T06:03:07.614Z,46.42
2016-07-05T06:04:08.448Z,45.74
2016-07-05T06:05:09.142Z,45.93
2016-07-05T06:06:08.245Z,45.83
2016-07-05T06:07:07.642Z,46.12
2016-07-05T06:08:08.265Z,46.32
2016-07-05T06:09:08.277Z,46.42
2016-07-05T06:10:08.275Z,46.32
2016-07-05T06:11:07.672Z,47.09
2016-07-05T06:12:08.286Z,47.09
2016-07-05T06:13:07.684Z,46.7
2016-07-05T06:14:08.307Z,46.42
2016-07-05T06:15:07.700Z,46.32
2016-07-05T06:16:08.713Z,46.42
2016-07-05T06:17:07.716Z,46.22
2016-07-05T06:18:07.719Z,46.22
2016-07-05T06:19:07.729Z,46.32
2016-07-05T06:20:08.347Z,46.61
2016-07-05T06:21:08.354Z,47.28
2016-07-05T06:22:07.750Z,47
2016-07-05T06:23:07.758Z,47
2016-07-05T06:24:08.378Z,46.68
2016-07-05T06:25:08.378Z,46.9
2016-07-05T06:26:08.390Z,46.8
2016-07-05T06:27:08.128Z,46.97
2016-07-05T06:28:07.786Z,46.8
2016-07-05T06:29:07.788Z,46.58
2016-07-05T06:30:08.411Z,46.78
2016-07-05T06:31:09.219Z,47.19
2016-07-05T06:32:07.823Z,46.22
2016-07-05T06:33:08.440Z,46.42
2016-07-05T06:34:08.441Z,46.42
2016-07-05T06:35:08.449Z,46.03
2016-07-05T06:36:08.452Z,46.32
2016-07-05T06:37:07.846Z,46.32
2016-07-05T06:38:08.470Z,46.12
2016-07-05T06:39:08.468Z,46.32
2016-07-05T06:40:07.865Z,46.51
2016-07-05T06:41:07.867Z,46.8
2016-07-05T06:42:09.588Z,46.8
2016-07-05T06:43:08.494Z,46.7
2016-07-05T06:44:08.498Z,46.9
2016-07-05T06:45:08.567Z,47.36
2016-07-05T06:46:08.516Z,47.09
2016-07-05T06:47:08.521Z,47.07
2016-07-05T06:48:07.912Z,46.88
2016-07-05T06:49:08.532Z,47.09
2016-07-05T06:50:07.929Z,47.07
2016-07-05T06:51:08.549Z,47.07
2016-07-05T06:52:08.548Z,47.07
2016-07-05T06:53:09.622Z,46.97
2016-07-05T06:54:08.571Z,47.55
2016-07-05T06:55:08.570Z,47.26
2016-07-05T06:56:07.966Z,47.36
2016-07-05T06:57:08.599Z,47.36
2016-07-05T06:58:07.980Z,47.26
2016-07-05T06:59:07.987Z,47.26
2016-07-05T07:00:08.000Z,47.45
2016-07-05T07:01:08.616Z,47.55
2016-07-05T07:02:08.005Z,47.26
2016-07-05T07:03:08.635Z,47.36
2016-07-05T07:04:09.725Z,47.26
2016-07-05T07:05:08.645Z,48.03
2016-07-05T07:06:08.036Z,48.03
2016-07-05T07:07:08.654Z,47.55
2016-07-05T07:08:08.050Z,47.74
2016-07-05T07:09:08.043Z,47.16
2016-07-05T07:10:08.674Z,47.36
2016-07-05T07:11:08.680Z,47.16
2016-07-05T07:12:08.686Z,47.65
2016-07-05T07:13:08.692Z,47.65
2016-07-05T07:14:08.689Z,47.65
2016-07-05T07:15:09.187Z,47.94
2016-07-05T07:16:08.083Z,48.13
2016-07-05T07:17:08.102Z,48.03
2016-07-05T07:18:08.723Z,48.32
2016-07-05T07:19:08.734Z,48.13
2016-07-05T07:20:08.120Z,48.23
2016-07-05T07:21:08.729Z,48.13
2016-07-05T07:22:08.735Z,48.23
2016-07-05T07:23:08.745Z,48.23
2016-07-05T07:24:08.745Z,48.13
2016-07-05T07:25:08.138Z,48.23
2016-07-05T07:26:09.157Z,48.13
2016-07-05T07:27:08.767Z,48.23
2016-07-05T07:28:09.740Z,48.03
2016-07-05T07:29:08.175Z,48.23
2016-07-05T07:30:08.181Z,48.13
2016-07-05T07:31:08.188Z,47.94
2016-07-05T07:32:08.808Z,47.74
2016-07-05T07:33:08.201Z,48.23
2016-07-05T07:34:08.819Z,48.13
2016-07-05T07:35:08.214Z,48.13
2016-07-05T07:36:08.219Z,48.13
2016-07-05T07:37:08.579Z,48.23
2016-07-05T07:38:08.233Z,48.23
2016-07-05T07:39:09.940Z,48.11
2016-07-05T07:40:08.246Z,48.13
2016-07-05T07:41:08.257Z,48.23
2016-07-05T07:42:08.874Z,48.13
2016-07-05T07:43:08.267Z,48.03
2016-07-05T07:44:08.273Z,48.13
2016-07-05T07:45:08.280Z,48.13
2016-07-05T07:46:08.899Z,48.23
2016-07-05T07:47:08.905Z,48.13
2016-07-05T07:48:08.910Z,48.23
2016-07-05T07:49:08.918Z,48.13
2016-07-05T07:50:08.299Z,48.13
2016-07-05T07:51:08.932Z,48.13
2016-07-05T07:52:08.938Z,48.13
2016-07-05T07:53:08.945Z,48.11
2016-07-05T07:54:08.940Z,48.13
2016-07-05T07:55:08.347Z,48.13
2016-07-05T07:56:08.962Z,48.13
2016-07-05T07:57:08.971Z,48.13
2016-07-05T07:58:08.352Z,48.13
2016-07-05T07:59:08.666Z,47.91
2016-07-05T08:00:08.374Z,47.74
2016-07-05T08:01:09.945Z,47.94
2016-07-05T08:02:09.001Z,47.81
2016-07-05T08:03:08.393Z,48.03
2016-07-05T08:04:08.403Z,47.84
2016-07-05T08:05:08.406Z,47.94
2016-07-05T08:06:08.413Z,48.03
2016-07-05T08:07:08.417Z,48.03
2016-07-05T08:08:08.425Z,48.03
2016-07-05T08:09:08.433Z,48.42
2016-07-05T08:10:08.735Z,48.03
2016-07-05T08:11:08.445Z,48.13
2016-07-05T08:12:09.911Z,47.91
2016-07-05T08:13:09.067Z,48.39
2016-07-05T08:14:09.200Z,48.03
2016-07-05T08:15:09.071Z,48.42
2016-07-05T08:16:09.079Z,47.84
2016-07-05T08:17:08.473Z,48.61
2016-07-05T08:18:09.098Z,48.3
2016-07-05T08:19:08.491Z,48.42
2016-07-05T08:20:09.099Z,48.61
2016-07-05T08:21:09.112Z,48.52
2016-07-05T08:22:09.106Z,48.61
2016-07-05T08:23:08.510Z,48.61
2016-07-05T08:24:09.131Z,48.81
2016-07-05T08:25:09.387Z,48.61
2016-07-05T08:26:08.526Z,48.52
2016-07-05T08:27:09.149Z,48.42
2016-07-05T08:28:09.153Z,48.71
2016-07-05T08:29:09.161Z,48.61
2016-07-05T08:30:08.553Z,48.71
2016-07-05T08:31:09.171Z,48.52
2016-07-05T08:32:08.566Z,48.61
2016-07-05T08:33:09.189Z,48.23
2016-07-05T08:34:09.679Z,48.32
2016-07-05T08:35:09.194Z,48.52
2016-07-05T08:36:08.940Z,48.61
2016-07-05T08:37:09.205Z,48.81
2016-07-05T08:38:08.608Z,48.23
2016-07-05T08:39:08.637Z,48.52
2016-07-05T08:40:09.230Z,48.9
2016-07-05T08:41:09.255Z,49.46
2016-07-05T08:42:09.246Z,49.17
2016-07-05T08:43:09.265Z,49.17
2016-07-05T08:44:08.665Z,50.23
2016-07-05T08:45:10.426Z,50.21
2016-07-05T08:46:09.266Z,50.52
2016-07-05T08:47:09.521Z,51.07
2016-07-05T08:48:09.263Z,51.25
2016-07-05T08:49:08.665Z,51.07
2016-07-05T08:50:08.679Z,51.27
2016-07-05T08:51:08.659Z,51.53
2016-07-05T08:52:09.281Z,52.79
2016-07-05T08:53:08.674Z,53.73
2016-07-05T08:54:09.295Z,53.51
2016-07-05T08:55:08.677Z,53.51
2016-07-05T08:56:10.244Z,53.7
2016-07-05T08:57:09.294Z,54.66
2016-07-05T08:58:08.742Z,55.51
2016-07-05T08:59:08.700Z,54.93
2016-07-05T09:00:08.693Z,54.96
2016-07-05T09:01:08.699Z,54.96
2016-07-05T09:02:08.719Z,53.7
2016-07-05T09:03:09.307Z,53.73
2016-07-05T09:04:09.310Z,55.24
2016-07-05T09:05:09.306Z,55.44
2016-07-05T09:06:08.746Z,55.41
2016-07-05T09:07:09.309Z,55.22
2016-07-05T09:08:08.759Z,55.02
2016-07-05T09:09:08.719Z,54.76
2016-07-05T09:10:09.340Z,55.54
2016-07-05T09:11:09.552Z,55.22
2016-07-05T09:12:09.320Z,55.24
2016-07-05T09:13:08.705Z,56.27
2016-07-05T09:14:09.318Z,56.47
2016-07-05T09:15:08.717Z,55.41
2016-07-05T09:16:08.710Z,55.54
2016-07-05T09:17:08.733Z,55.63
2016-07-05T09:18:09.313Z,56.37
2016-07-05T09:19:08.716Z,56.57
2016-07-05T09:20:09.329Z,56.18
2016-07-05T09:21:09.327Z,55.6
2016-07-05T09:22:09.826Z,56.18
2016-07-05T09:23:09.331Z,56.27
2016-07-05T09:24:09.334Z,56.27
2016-07-05T09:25:09.323Z,56.57
2016-07-05T09:26:09.338Z,55.6
2016-07-05T09:27:09.336Z,55.73
2016-07-05T09:28:09.339Z,56.09
2016-07-05T09:29:09.341Z,56.09
2016-07-05T09:30:09.339Z,56.57
2016-07-05T09:31:09.345Z,57.31
2016-07-05T09:32:09.342Z,56.25
2016-07-05T09:33:09.998Z,56.37
2016-07-05T09:34:09.349Z,56.4
2016-07-05T09:35:08.733Z,56.47
2016-07-05T09:36:08.732Z,56.82
2016-07-05T09:37:08.737Z,56.63
2016-07-05T09:38:09.354Z,56.18
2016-07-05T09:39:09.347Z,56.09
2016-07-05T09:40:09.350Z,56.66
2016-07-05T09:41:09.349Z,56.66
2016-07-05T09:42:09.355Z,56.73
2016-07-05T09:43:09.352Z,56.57
2016-07-05T09:44:09.843Z,57.53
2016-07-05T09:45:09.342Z,57.69
2016-07-05T09:46:09.352Z,57.79
2016-07-05T09:47:09.358Z,57.5
2016-07-05T09:48:09.359Z,57.6
2016-07-05T09:49:09.356Z,57.89
2016-07-05T09:50:09.357Z,57.98
2016-07-05T09:51:09.357Z,58.08
2016-07-05T09:52:09.357Z,57.98
2016-07-05T09:53:09.364Z,56.76
2016-07-05T09:54:09.362Z,57.05
2016-07-05T09:55:09.864Z,57.05
2016-07-05T09:56:09.364Z,57.92
2016-07-05T09:57:08.751Z,58.27
2016-07-05T09:58:09.352Z,58.56
2016-07-05T09:59:09.354Z,58.75
2016-07-05T10:00:09.365Z,58.17
2016-07-05T10:01:09.367Z,57.69
2016-07-05T10:02:08.744Z,57.31
2016-07-05T10:03:09.364Z,57.6
2016-07-05T10:04:08.751Z,58.17
2016-07-05T10:05:08.758Z,58.56
2016-07-05T10:06:09.372Z,58.08
2016-07-05T10:07:09.360Z,58.27
2016-07-05T10:08:08.758Z,58.47
2016-07-05T10:09:08.758Z,58.17
2016-07-05T10:10:09.363Z,58.27
2016-07-05T10:11:09.372Z,58.17
2016-07-05T10:12:09.372Z,58.17
2016-07-05T10:13:09.375Z,58.37
2016-07-05T10:14:08.764Z,58.4
2016-07-05T10:15:08.767Z,58.27
2016-07-05T10:16:08.763Z,58.65
2016-07-05T10:17:09.370Z,58.17
2016-07-05T10:18:08.764Z,58.17
2016-07-05T10:19:10.484Z,57.98
2016-07-05T10:20:09.381Z,57.62
2016-07-05T10:21:09.381Z,58.4
2016-07-05T10:22:08.770Z,57.82
2016-07-05T10:23:09.385Z,58.11
2016-07-05T10:24:08.761Z,57.72
2016-07-05T10:25:09.392Z,57.92
2016-07-05T10:26:09.391Z,58.08
2016-07-05T10:27:09.388Z,59.14
2016-07-05T10:28:08.778Z,59.33
2016-07-05T10:29:09.393Z,60.1
2016-07-05T10:30:09.895Z,59.81
2016-07-05T10:31:09.388Z,59.14
2016-07-05T10:32:08.787Z,58.37
2016-07-05T10:33:08.783Z,58.47
2016-07-05T10:34:08.777Z,58.47
2016-07-05T10:35:09.400Z,58.56
2016-07-05T10:36:09.399Z,59.23
2016-07-05T10:37:09.400Z,59.14
2016-07-05T10:38:09.400Z,59.43
2016-07-05T10:39:08.787Z,58.56
2016-07-05T10:40:08.787Z,58.65
2016-07-05T10:41:10.059Z,58.47
2016-07-05T10:42:09.403Z,58.37
2016-07-05T10:43:09.402Z,57.98
2016-07-05T10:44:08.790Z,58.27
2016-07-05T10:45:09.405Z,58.56
2016-07-05T10:46:08.836Z,58.85
2016-07-05T10:47:08.804Z,58.37
2016-07-05T10:48:08.794Z,58.65
2016-07-05T10:49:08.789Z,59.2
2016-07-05T10:50:08.794Z,58.44
2016-07-05T10:51:08.793Z,58.27
2016-07-05T10:52:09.860Z,58.17
2016-07-05T10:53:08.797Z,58.27
2016-07-05T10:54:23.648Z,58.49
2016-07-05T10:55:09.415Z,58.27
2016-07-05T10:56:09.414Z,58.17
2016-07-05T10:57:08.799Z,57.89
2016-07-05T10:58:09.412Z,58.17
2016-07-05T10:59:08.803Z,58.27
2016-07-05T11:00:08.807Z,57.69
2016-07-05T11:01:08.799Z,57.98
2016-07-05T11:02:08.794Z,58.27
2016-07-05T11:03:09.417Z,58.17
2016-07-05T11:04:08.806Z,57.69
2016-07-05T11:05:08.806Z,57.98
2016-07-05T11:06:08.807Z,58.27
2016-07-05T11:07:08.808Z,58.27
2016-07-05T11:08:09.424Z,57.98
2016-07-05T11:09:08.811Z,58.56
2016-07-05T11:10:09.426Z,58.37
2016-07-05T11:11:09.428Z,57.98
2016-07-05T11:12:09.431Z,58.37
2016-07-05T11:13:09.428Z,58.65
2016-07-05T11:14:08.835Z,58.08
2016-07-05T11:15:09.428Z,58.27
2016-07-05T11:16:09.451Z,58.37
2016-07-05T11:17:08.822Z,58.47
2016-07-05T11:18:08.830Z,57.98
2016-07-05T11:19:09.449Z,57.6
2016-07-05T11:20:09.434Z,56.09
2016-07-05T11:21:08.863Z,55.82
2016-07-05T11:22:09.439Z,54.79
2016-07-05T11:23:09.462Z,54.69
2016-07-05T11:24:23.687Z,54.31
2016-07-05T11:25:10.320Z,54.43
2016-07-05T11:26:08.923Z,54.24
2016-07-05T11:27:09.453Z,53.66
2016-07-05T11:28:08.846Z,53.56
2016-07-05T11:29:09.455Z,53.56
2016-07-05T11:30:08.938Z,53.66
2016-07-05T11:31:08.884Z,53.95
2016-07-05T11:32:09.534Z,53.75
2016-07-05T11:33:09.494Z,53.66
2016-07-05T11:34:09.486Z,53.37
2016-07-05T11:35:09.581Z,53.39
2016-07-05T11:36:08.880Z,53.3
2016-07-05T11:37:08.914Z,53.27
2016-07-05T11:38:09.502Z,53.11
2016-07-05T11:39:10.285Z,53.01
2016-07-05T11:40:08.905Z,52.81
2016-07-05T11:41:08.910Z,52.62
2016-07-05T11:42:08.916Z,52.91
2016-07-05T11:43:09.535Z,53.3
2016-07-05T11:44:09.549Z,52.43
2016-07-05T11:45:08.934Z,52.62
2016-07-05T11:46:09.696Z,52.17
2016-07-05T11:47:09.561Z,52.45
2016-07-05T11:48:10.307Z,52.26
2016-07-05T11:49:08.953Z,52.07
2016-07-05T11:50:08.960Z,52.17
2016-07-05T11:51:08.966Z,51.97
2016-07-05T11:52:08.971Z,52.17
2016-07-05T11:53:08.980Z,52.26
2016-07-05T11:54:08.986Z,52.26
2016-07-05T11:55:09.648Z,52.17
2016-07-05T11:56:08.999Z,52.07
2016-07-05T11:57:09.884Z,52.07
2016-07-05T11:58:09.619Z,52.07
2016-07-05T11:59:09.666Z,52.36
2016-07-05T12:00:09.707Z,52.45
2016-07-05T12:01:09.013Z,51.97
2016-07-05T12:02:09.644Z,52.26
2016-07-05T12:03:09.649Z,52.17
2016-07-05T12:04:10.696Z,52.07
2016-07-05T12:05:09.052Z,52.17
2016-07-05T12:06:09.054Z,52.45
2016-07-05T12:07:09.675Z,52.26
2016-07-05T12:08:09.068Z,51.97
2016-07-05T12:09:09.072Z,52.07
2016-07-05T12:10:09.691Z,51.97
2016-07-05T12:11:09.086Z,51.87
2016-07-05T12:12:09.710Z,52.07
2016-07-05T12:13:09.143Z,52.07
2016-07-05T12:14:09.716Z,52.17
2016-07-05T12:15:09.112Z,51.97
2016-07-05T12:16:09.724Z,52.45
2016-07-05T12:17:09.115Z,52.36
2016-07-05T12:18:09.835Z,52.36
2016-07-05T12:19:09.134Z,52.36
2016-07-05T12:20:10.499Z,52.26
2016-07-05T12:21:09.763Z,52.45
2016-07-05T12:22:09.159Z,52.17
2016-07-05T12:23:09.904Z,52.29
2016-07-05T12:24:11.770Z,52.17
2016-07-05T12:25:09.791Z,52.07
2016-07-05T12:26:09.210Z,52.07
2016-07-05T12:27:09.939Z,52.09
2016-07-05T12:28:09.827Z,52.55
2016-07-05T12:29:10.974Z,52.26
2016-07-05T12:30:09.820Z,52.29
2016-07-05T12:31:09.814Z,52.39
2016-07-05T12:32:09.280Z,52.39
2016-07-05T12:33:09.218Z,52.45
2016-07-05T12:34:09.923Z,52.29
2016-07-05T12:35:09.371Z,52.67
2016-07-05T12:36:10.294Z,52.87
2016-07-05T12:37:09.850Z,52.58
2016-07-05T12:38:09.248Z,52.29
2016-07-05T12:39:09.957Z,52.48
2016-07-05T12:40:09.257Z,52.09
2016-07-05T12:41:09.315Z,52.39
2016-07-05T12:42:09.273Z,52.39
2016-07-05T12:43:09.958Z,52.58
2016-07-05T12:44:09.317Z,52.67
2016-07-05T12:45:09.965Z,52.29
2016-07-05T12:46:10.054Z,52.39
2016-07-05T12:47:09.980Z,52.39
2016-07-05T12:48:09.991Z,52.39
2016-07-05T12:49:09.972Z,52.58
2016-07-05T12:50:09.999Z,52.77
2016-07-05T12:51:10.069Z,52.39
2016-07-05T12:52:09.956Z,52.58
2016-07-05T12:53:10.089Z,52.58
2016-07-05T12:54:10.043Z,52.58
2016-07-05T12:55:10.037Z,52.67
2016-07-05T12:56:10.003Z,53.16